createdAt,value
2024-03-19T00:00:17.876Z,18.9
2024-03-19T00:01:17.980Z,18.4
2024-03-19T00:02:17.559Z,19.6
2024-03-19T00:03:17.653Z,19.2
2024-03-19T00:04:17.419Z,18.9
2024-03-19T00:05:17.816Z,19.1
2024-03-19T00:06:17.504Z,19.3
2024-03-19T00:07:17.812Z,19.5
2024-03-19T00:08:17.447Z,18.8
2024-03-19T00:09:17.777Z,19.9
2024-03-19T00:10:17.374Z,20.0
2024-03-19T00:11:17.409Z,18.6
2024-03-19T00:12:17.624Z,18.4
2024-03-19T00:13:17.820Z,18.7
2024-03-19T00:14:18.064Z,19.7
2024-03-19T00:15:17.360Z,19.4
2024-03-19T00:16:17.827Z,19.5
2024-03-19T00:17:17.667Z,19.8
2024-03-19T00:18:18.117Z,17.8
2024-03-19T00:19:17.581Z,19.8
2024-03-19T00:20:17.509Z,18.8
2024-03-19T00:21:17.176Z,19.3
2024-03-19T00:22:17.846Z,19.4
2024-03-19T00:23:17.772Z,18.4
2024-03-19T00:24:17.505Z,19.0
2024-03-19T00:25:17.402Z,18.6
2024-03-19T00:26:17.986Z,18.4
2024-03-19T00:27:17.344Z,19.6
2024-03-19T00:28:17.676Z,18.4
2024-03-19T00:29:17.575Z,17.8
2024-03-19T00:30:17.696Z,19.2
2024-03-19T00:31:17.907Z,18.9
2024-03-19T00:32:17.346Z,18.4
2024-03-19T00:33:18.142Z,19.5
2024-03-19T00:34:17.825Z,19.2
2024-03-19T00:35:17.348Z,18.0
2024-03-19T00:36:17.673Z,19.1
2024-03-19T00:37:17.901Z,18.3
2024-03-19T00:38:17.372Z,18.5
2024-03-19T00:39:17.270Z,17.9
2024-03-19T00:40:17.517Z,18.9
2024-03-19T00:41:17.583Z,18.9
2024-03-19T00:42:17.533Z,18.1
2024-03-19T00:43:17.288Z,18.0
2024-03-19T00:44:17.666Z,18.4
2024-03-19T00:45:17.405Z,18.8
2024-03-19T00:46:17.975Z,18.5
2024-03-19T00:47:17.730Z,18.3
2024-03-19T00:48:17.901Z,18.5
2024-03-19T00:49:17.822Z,19.0
2024-03-19T00:50:17.637Z,18.7
2024-03-19T00:51:17.829Z,19.2
2024-03-19T00:52:18.096Z,18.2
2024-03-19T00:53:17.531Z,19.0
2024-03-19T00:54:17.224Z,18.1
2024-03-19T00:55:17.871Z,18.1
2024-03-19T00:56:17.820Z,18.4
2024-03-19T00:57:17.692Z,18.5
2024-03-19T00:58:17.992Z,18.5
2024-03-19T00:59:18.150Z,18.3
2024-03-19T01:00:17.948Z,17.4
2024-03-19T01:01:18.085Z,18.1
2024-03-19T01:02:17.524Z,18.9
2024-03-19T01:03:18.128Z,18.6
2024-03-19T01:04:17.670Z,17.6
2024-03-19T01:05:17.952Z,18.6
2024-03-19T01:06:17.356Z,17.4
2024-03-19T01:07:18.227Z,17.2
2024-03-19T01:08:17.820Z,18.7
2024-03-19T01:09:17.495Z,18.2
2024-03-19T01:10:17.733Z,17.7
2024-03-19T01:11:18.247Z,19.0
2024-03-19T01:12:17.339Z,16.9
2024-03-19T01:13:18.154Z,18.1
2024-03-19T01:14:17.720Z,17.0
2024-03-19T01:15:18.137Z,18.6
2024-03-19T01:16:17.977Z,18.5
2024-03-19T01:17:18.301Z,17.6
2024-03-19T01:18:17.911Z,18.3
2024-03-19T01:19:17.583Z,17.9
2024-03-19T01:20:17.517Z,17.2
2024-03-19T01:21:17.261Z,17.7
2024-03-19T01:22:17.917Z,17.6
2024-03-19T01:23:17.266Z,16.6
2024-03-19T01:24:17.177Z,16.2
2024-03-19T01:25:17.804Z,17.0
2024-03-19T01:26:20.701Z,17.0
2024-03-19T01:27:17.590Z,16.7
2024-03-19T01:28:17.645Z,17.0
2024-03-19T01:29:17.483Z,17.9
2024-03-19T01:30:18.303Z,17.6
2024-03-19T01:31:17.286Z,18.4
2024-03-19T01:32:17.183Z,18.5
2024-03-19T01:33:17.967Z,16.7
2024-03-19T01:34:17.724Z,16.4
2024-03-19T01:35:18.066Z,16.7
2024-03-19T01:36:17.825Z,18.6
2024-03-19T01:37:17.422Z,18.2
2024-03-19T01:38:17.329Z,17.2
2024-03-19T01:39:17.988Z,16.0
2024-03-19T01:40:18.071Z,16.9
2024-03-19T01:41:17.643Z,17.1
2024-03-19T01:42:18.491Z,17.2
2024-03-19T01:43:21.095Z,16.9
2024-03-19T01:44:17.504Z,16.5
2024-03-19T01:45:17.697Z,17.8
2024-03-19T01:46:25.182Z,15.9
2024-03-19T01:47:18.141Z,16.8
2024-03-19T01:48:18.071Z,16.4
2024-03-19T01:49:17.620Z,17.1
2024-03-19T01:50:17.896Z,17.5
2024-03-19T01:51:17.909Z,16.0
2024-03-19T01:52:17.850Z,17.0
2024-03-19T01:53:17.818Z,15.8
2024-03-19T01:54:17.939Z,16.2
2024-03-19T01:55:18.068Z,16.8
2024-03-19T01:56:17.653Z,16.4
2024-03-19T01:57:17.512Z,16.3
2024-03-19T01:58:17.424Z,16.4
2024-03-19T01:59:17.809Z,15.9
2024-03-19T02:00:17.848Z,15.6
2024-03-19T02:01:17.970Z,17.1
2024-03-19T02:02:34.047Z,15.8
2024-03-19T02:03:17.518Z,16.4
2024-03-19T02:04:17.731Z,16.5
2024-03-19T02:05:17.809Z,15.1
2024-03-19T02:06:17.815Z,16.5
2024-03-19T02:07:18.049Z,15.6
2024-03-19T02:08:17.881Z,15.8
2024-03-19T02:09:17.803Z,15.6
2024-03-19T02:10:17.654Z,15.1
2024-03-19T02:11:21.024Z,15.8
2024-03-19T02:12:18.052Z,16.5
2024-03-19T02:13:18.058Z,16.4
2024-03-19T02:14:17.826Z,15.5
2024-03-19T02:15:17.822Z,16.1
2024-03-19T02:16:17.250Z,15.9
2024-03-19T02:17:18.153Z,15.6
2024-03-19T02:18:17.980Z,16.3
2024-03-19T02:19:17.746Z,15.9
2024-03-19T02:20:17.828Z,15.9
2024-03-19T02:21:18.132Z,15.7
2024-03-19T02:22:17.845Z,15.2
2024-03-19T02:23:17.420Z,16.4
2024-03-19T02:24:18.063Z,15.3
2024-03-19T02:25:17.342Z,15.7
2024-03-19T02:26:18.099Z,15.3
2024-03-19T02:27:17.401Z,15.5
2024-03-19T02:28:18.127Z,15.1
2024-03-19T02:29:17.494Z,15.1
2024-03-19T02:30:17.814Z,16.5
2024-03-19T02:31:17.823Z,16.0
2024-03-19T02:32:18.221Z,16.0
2024-03-19T02:33:17.662Z,15.6
2024-03-19T02:34:17.900Z,14.4
2024-03-19T02:35:18.152Z,16.1
2024-03-19T02:36:17.985Z,16.1
2024-03-19T02:37:18.049Z,15.2
2024-03-19T02:38:17.900Z,14.4
2024-03-19T02:39:17.908Z,14.8
2024-03-19T02:40:17.509Z,15.7
2024-03-19T02:41:17.984Z,15.3
2024-03-19T02:42:17.586Z,15.6
2024-03-19T02:43:17.910Z,14.8
2024-03-19T02:44:17.755Z,14.9
2024-03-19T02:45:17.605Z,15.3
2024-03-19T02:46:17.833Z,14.5
2024-03-19T02:47:17.742Z,14.8
2024-03-19T02:48:17.819Z,14.8
2024-03-19T02:49:18.152Z,14.8
2024-03-19T02:50:17.906Z,15.2
2024-03-19T02:51:17.811Z,14.4
2024-03-19T02:52:18.215Z,14.9
2024-03-19T02:53:18.703Z,13.9
2024-03-19T02:54:17.724Z,14.4
2024-03-19T02:55:17.894Z,14.7
2024-03-19T02:56:17.653Z,15.2
2024-03-19T02:57:17.894Z,15.0
2024-03-19T02:58:18.641Z,14.1
2024-03-19T02:59:17.659Z,14.3
2024-03-19T03:00:18.430Z,15.0
2024-03-19T03:01:17.520Z,15.1
2024-03-19T03:02:17.779Z,14.7
2024-03-19T03:03:17.917Z,15.1
2024-03-19T03:04:18.071Z,14.8
2024-03-19T03:05:18.060Z,13.4
2024-03-19T03:06:17.837Z,15.4
2024-03-19T03:07:18.147Z,14.5
2024-03-19T03:08:17.976Z,14.3
2024-03-19T03:09:18.226Z,13.0
2024-03-19T03:10:17.508Z,14.0
2024-03-19T03:11:17.356Z,13.6
2024-03-19T03:12:17.601Z,14.6
2024-03-19T03:13:17.443Z,13.5
2024-03-19T03:14:17.741Z,14.5
2024-03-19T03:15:17.915Z,14.0
2024-03-19T03:16:18.141Z,14.4
2024-03-19T03:17:18.001Z,14.0
2024-03-19T03:18:17.665Z,14.1
2024-03-19T03:19:17.986Z,13.8
2024-03-19T03:20:17.432Z,14.1
2024-03-19T03:21:17.699Z,13.4
2024-03-19T03:22:17.593Z,13.6
2024-03-19T03:23:18.009Z,14.2
2024-03-19T03:24:17.911Z,13.8
2024-03-19T03:25:17.702Z,13.7
2024-03-19T03:26:17.503Z,13.1
2024-03-19T03:27:17.845Z,13.7
2024-03-19T03:28:18.060Z,13.4
2024-03-19T03:29:17.737Z,12.7
2024-03-19T03:30:17.600Z,13.8
2024-03-19T03:31:17.435Z,14.6
2024-03-19T03:32:17.754Z,13.6
2024-03-19T03:33:17.897Z,13.7
2024-03-19T03:34:17.352Z,14.1
2024-03-19T03:35:17.976Z,14.3
2024-03-19T03:36:17.346Z,12.1
2024-03-19T03:37:21.261Z,14.5
2024-03-19T03:38:18.158Z,13.2
2024-03-19T03:39:17.607Z,13.3
2024-03-19T03:40:17.919Z,14.0
2024-03-19T03:41:17.699Z,13.5
2024-03-19T03:42:18.196Z,14.5
2024-03-19T03:43:20.275Z,13.4
2024-03-19T03:44:17.901Z,13.6
2024-03-19T03:45:20.402Z,13.2
2024-03-19T03:46:17.984Z,12.9
2024-03-19T03:47:17.841Z,12.6
2024-03-19T03:48:18.053Z,13.5
2024-03-19T03:49:17.818Z,13.1
2024-03-19T03:50:17.680Z,12.0
2024-03-19T03:51:17.615Z,12.0
2024-03-19T03:52:17.805Z,13.4
2024-03-19T03:53:17.977Z,12.8
2024-03-19T03:54:17.430Z,13.4
2024-03-19T03:55:17.674Z,12.3
2024-03-19T03:56:17.807Z,13.1
2024-03-19T03:57:17.737Z,11.9
2024-03-19T03:58:17.884Z,12.1
2024-03-19T03:59:17.815Z,12.8
2024-03-19T04:00:17.750Z,12.9
2024-03-19T04:01:17.906Z,12.8
2024-03-19T04:02:18.034Z,12.6
2024-03-19T04:03:17.824Z,11.9
2024-03-19T04:04:17.328Z,12.4
2024-03-19T04:05:17.353Z,12.4
2024-03-19T04:06:17.768Z,12.8
2024-03-19T04:07:17.825Z,12.3
2024-03-19T04:08:17.657Z,11.9
2024-03-19T04:09:17.514Z,12.3
2024-03-19T04:10:17.552Z,12.5
2024-03-19T04:11:18.174Z,11.5
2024-03-19T04:12:17.419Z,12.4
2024-03-19T04:13:18.066Z,12.4
2024-03-19T04:14:17.896Z,12.4
2024-03-19T04:15:18.204Z,11.6
2024-03-19T04:16:18.069Z,12.5
2024-03-19T04:17:17.835Z,14.7
2024-03-19T04:18:18.020Z,12.0
2024-03-19T04:19:17.503Z,12.6
2024-03-19T04:20:18.000Z,11.2
2024-03-19T04:21:17.847Z,12.4
2024-03-19T04:22:17.715Z,12.0
2024-03-19T04:23:17.517Z,12.3
2024-03-19T04:24:18.145Z,11.2
2024-03-19T04:25:17.686Z,12.4
2024-03-19T04:26:17.433Z,12.6
2024-03-19T04:27:17.733Z,12.1
2024-03-19T04:28:17.812Z,12.2
2024-03-19T04:29:17.987Z,12.6
2024-03-19T04:30:17.929Z,13.0
2024-03-19T04:31:17.703Z,13.0
2024-03-19T04:32:17.976Z,11.6
2024-03-19T04:33:17.770Z,11.9
2024-03-19T04:34:17.765Z,12.0
2024-03-19T04:35:17.854Z,11.4
2024-03-19T04:36:18.018Z,11.4
2024-03-19T04:37:17.830Z,12.0
2024-03-19T04:38:18.239Z,12.0
2024-03-19T04:39:17.741Z,11.0
2024-03-19T04:40:17.690Z,11.4
2024-03-19T04:41:17.345Z,11.6
2024-03-19T04:42:20.463Z,11.3
2024-03-19T04:43:17.504Z,11.1
2024-03-19T04:44:17.338Z,12.0
2024-03-19T04:45:17.906Z,12.4
2024-03-19T04:46:17.844Z,11.4
2024-03-19T04:47:17.667Z,11.0
2024-03-19T04:48:17.811Z,12.0
2024-03-19T04:49:17.789Z,11.9
2024-03-19T04:50:17.541Z,11.0
2024-03-19T04:51:18.163Z,11.6
2024-03-19T04:52:17.448Z,10.9
2024-03-19T04:53:17.591Z,12.0
2024-03-19T04:54:18.073Z,11.1
2024-03-19T04:55:17.903Z,11.0
2024-03-19T04:56:17.381Z,12.2
2024-03-19T04:57:17.276Z,10.8
2024-03-19T04:58:18.071Z,11.3
2024-03-19T04:59:17.917Z,10.9
2024-03-19T05:00:17.682Z,11.5
2024-03-19T05:01:17.895Z,10.1
2024-03-19T05:02:17.624Z,10.6
2024-03-19T05:03:17.685Z,10.9
2024-03-19T05:04:19.268Z,11.6
2024-03-19T05:05:17.790Z,10.6
2024-03-19T05:06:17.451Z,10.9
2024-03-19T05:07:18.061Z,11.4
2024-03-19T05:08:17.451Z,11.3
2024-03-19T05:09:17.338Z,10.5
2024-03-19T05:10:18.058Z,10.5
2024-03-19T05:11:18.154Z,10.7
2024-03-19T05:12:17.525Z,11.0
2024-03-19T05:13:17.672Z,10.7
2024-03-19T05:14:17.460Z,11.0
2024-03-19T05:15:17.511Z,11.1
2024-03-19T05:16:18.005Z,9.8
2024-03-19T05:17:17.904Z,10.8
2024-03-19T05:18:18.151Z,10.8
2024-03-19T05:19:17.842Z,11.5
2024-03-19T05:20:17.848Z,11.0
2024-03-19T05:21:17.696Z,10.5
2024-03-19T05:22:17.343Z,11.7
2024-03-19T05:23:18.052Z,10.4
2024-03-19T05:24:17.965Z,10.4
2024-03-19T05:25:17.746Z,10.8
2024-03-19T05:26:17.935Z,10.9
2024-03-19T05:27:18.239Z,11.7
2024-03-19T05:28:18.148Z,10.4
2024-03-19T05:29:17.751Z,10.0
2024-03-19T05:30:18.068Z,10.5
2024-03-19T05:31:20.618Z,10.1
2024-03-19T05:32:17.733Z,10.0
2024-03-19T05:33:18.000Z,10.6
2024-03-19T05:34:17.661Z,10.3
2024-03-19T05:35:17.662Z,10.7
2024-03-19T05:36:17.460Z,9.7
2024-03-19T05:37:17.514Z,9.9
2024-03-19T05:38:17.282Z,9.9
2024-03-19T05:39:17.424Z,9.3
2024-03-19T05:40:17.517Z,9.6
2024-03-19T05:41:18.080Z,10.3
2024-03-19T05:42:17.399Z,10.8
2024-03-19T05:43:18.238Z,9.9
2024-03-19T05:44:18.066Z,9.9
2024-03-19T05:45:17.360Z,9.1
2024-03-19T05:46:17.980Z,10.4
2024-03-19T05:47:17.747Z,10.9
2024-03-19T05:48:17.601Z,9.2
2024-03-19T05:49:18.012Z,9.8
2024-03-19T05:50:17.759Z,9.1
2024-03-19T05:51:17.521Z,9.8
2024-03-19T05:52:17.669Z,9.5
2024-03-19T05:53:19.098Z,9.4
2024-03-19T05:54:17.365Z,9.1
2024-03-19T05:55:18.064Z,10.0
2024-03-19T05:56:17.235Z,9.7
2024-03-19T05:57:18.219Z,10.0
2024-03-19T05:58:17.671Z,9.4
2024-03-19T05:59:18.147Z,10.2
2024-03-19T06:00:18.075Z,10.1
2024-03-19T06:01:17.414Z,9.2
2024-03-19T06:02:17.611Z,9.7
2024-03-19T06:03:17.346Z,9.8
2024-03-19T06:04:17.598Z,9.2
2024-03-19T06:05:17.897Z,9.7
2024-03-19T06:06:20.225Z,9.7
2024-03-19T06:07:17.910Z,9.7
2024-03-19T06:08:17.765Z,10.3
2024-03-19T06:09:17.568Z,9.2
2024-03-19T06:10:17.348Z,9.8
2024-03-19T06:11:18.074Z,9.1
2024-03-19T06:12:17.801Z,9.2
2024-03-19T06:13:17.723Z,9.2
2024-03-19T06:14:17.466Z,9.2
2024-03-19T06:15:17.238Z,8.4
2024-03-19T06:16:17.952Z,10.3
2024-03-19T06:17:17.789Z,9.0
2024-03-19T06:18:17.623Z,9.7
2024-03-19T06:19:22.555Z,9.5
2024-03-19T06:20:17.707Z,9.1
2024-03-19T06:21:17.503Z,10.1
2024-03-19T06:22:17.532Z,8.7
2024-03-19T06:23:18.020Z,9.1
2024-03-19T06:24:17.323Z,9.1
2024-03-19T06:25:17.542Z,8.8
2024-03-19T06:26:17.446Z,8.3
2024-03-19T06:27:18.131Z,8.0
2024-03-19T06:28:17.786Z,8.6
2024-03-19T06:29:17.692Z,8.7
2024-03-19T06:30:17.904Z,8.8
2024-03-19T06:31:17.778Z,8.4
2024-03-19T06:32:17.525Z,8.6
2024-03-19T06:33:17.826Z,8.0
2024-03-19T06:34:17.622Z,8.6
2024-03-19T06:35:17.388Z,8.3
2024-03-19T06:36:18.013Z,9.7
2024-03-19T06:37:17.953Z,8.8
2024-03-19T06:38:17.950Z,8.9
2024-03-19T06:39:17.291Z,8.6
2024-03-19T06:40:17.370Z,8.4
2024-03-19T06:41:18.012Z,9.5
2024-03-19T06:42:17.373Z,8.8
2024-03-19T06:43:17.472Z,9.2
2024-03-19T06:44:17.707Z,8.4
2024-03-19T06:45:17.942Z,8.9
2024-03-19T06:46:17.457Z,9.1
2024-03-19T06:47:17.318Z,8.6
2024-03-19T06:48:18.023Z,8.0
2024-03-19T06:49:17.844Z,9.6
2024-03-19T06:50:17.708Z,8.7
2024-03-19T06:51:17.944Z,8.4
2024-03-19T06:52:18.248Z,8.8
2024-03-19T06:53:17.952Z,7.9
2024-03-19T06:54:17.699Z,7.7
2024-03-19T06:55:17.580Z,8.0
2024-03-19T06:56:20.805Z,9.0
2024-03-19T06:57:18.171Z,7.9
2024-03-19T06:58:17.861Z,7.9
2024-03-19T06:59:17.777Z,8.8
2024-03-19T07:00:17.704Z,7.5
2024-03-19T07:01:18.145Z,8.5
2024-03-19T07:02:17.895Z,8.3
2024-03-19T07:03:17.961Z,8.0
2024-03-19T07:04:18.141Z,8.0
2024-03-19T07:05:17.354Z,9.1
2024-03-19T07:06:18.059Z,9.7
2024-03-19T07:07:17.811Z,8.6
2024-03-19T07:08:17.761Z,8.1
2024-03-19T07:09:17.495Z,8.1
2024-03-19T07:10:17.348Z,11.4
2024-03-19T07:11:17.483Z,10.5
2024-03-19T07:12:17.465Z,9.7
2024-03-19T07:13:17.922Z,8.9
2024-03-19T07:14:17.540Z,9.3
2024-03-19T07:15:18.146Z,9.3
2024-03-19T07:16:17.813Z,9.5
2024-03-19T07:17:17.653Z,8.6
2024-03-19T07:18:17.567Z,9.6
2024-03-19T07:19:17.495Z,9.9
2024-03-19T07:20:17.746Z,9.4
2024-03-19T07:21:17.259Z,8.7
2024-03-19T07:22:18.129Z,8.9
2024-03-19T07:23:17.966Z,8.3
2024-03-19T07:24:18.210Z,8.0
2024-03-19T07:25:17.985Z,8.7
2024-03-19T07:26:17.652Z,7.7
2024-03-19T07:27:17.731Z,7.8
2024-03-19T07:28:17.363Z,7.6
2024-03-19T07:29:17.569Z,8.3
2024-03-19T07:30:17.964Z,7.8
2024-03-19T07:31:17.580Z,7.6
2024-03-19T07:32:17.556Z,8.3
2024-03-19T07:33:18.123Z,7.9
2024-03-19T07:34:18.019Z,8.6
2024-03-19T07:35:17.896Z,8.9
2024-03-19T07:36:17.729Z,8.6
2024-03-19T07:37:17.494Z,8.8
2024-03-19T07:38:18.145Z,7.8
2024-03-19T07:39:17.858Z,7.7
2024-03-19T07:40:18.042Z,8.3
2024-03-19T07:41:19.085Z,8.0
2024-03-19T07:42:18.171Z,8.2
2024-03-19T07:43:18.516Z,8.4
2024-03-19T07:44:17.370Z,7.3
2024-03-19T07:45:18.212Z,8.9
2024-03-19T07:46:17.883Z,8.5
2024-03-19T07:47:18.112Z,7.8
2024-03-19T07:48:17.630Z,8.7
2024-03-19T07:49:17.868Z,8.0
2024-03-19T07:50:17.831Z,7.2
2024-03-19T07:51:17.322Z,8.1
2024-03-19T07:52:18.153Z,8.1
2024-03-19T07:53:17.783Z,7.4
2024-03-19T07:54:18.199Z,7.3
2024-03-19T07:55:18.021Z,7.9
2024-03-19T07:56:18.375Z,7.4
2024-03-19T07:57:18.082Z,7.8
2024-03-19T07:58:17.787Z,7.7
2024-03-19T07:59:17.688Z,8.3
2024-03-19T08:00:17.541Z,8.9
2024-03-19T08:01:18.021Z,7.5
2024-03-19T08:02:17.767Z,7.7
2024-03-19T08:03:17.776Z,7.9
2024-03-19T08:04:18.915Z,7.2
2024-03-19T08:05:18.319Z,6.9
2024-03-19T08:06:18.102Z,8.0
2024-03-19T08:07:18.654Z,7.2
2024-03-19T08:08:17.723Z,7.1
2024-03-19T08:09:18.005Z,7.6
2024-03-19T08:10:18.199Z,7.7
2024-03-19T08:11:17.831Z,7.7
2024-03-19T08:12:17.810Z,7.1
2024-03-19T08:13:17.465Z,7.6
2024-03-19T08:14:17.384Z,7.5
2024-03-19T08:15:18.263Z,7.3
2024-03-19T08:16:17.445Z,7.2
2024-03-19T08:17:18.182Z,7.0
2024-03-19T08:18:17.978Z,6.8
2024-03-19T08:19:17.725Z,7.4
2024-03-19T08:20:17.690Z,6.3
2024-03-19T08:21:17.706Z,7.9
2024-03-19T08:22:18.035Z,7.1
2024-03-19T08:23:17.867Z,6.7
2024-03-19T08:24:17.705Z,6.8
2024-03-19T08:25:17.546Z,7.0
2024-03-19T08:26:17.796Z,7.0
2024-03-19T08:27:17.559Z,7.4
2024-03-19T08:28:20.931Z,8.1
2024-03-19T08:29:17.550Z,9.3
2024-03-19T08:30:17.609Z,8.6
2024-03-19T08:31:17.935Z,8.7
2024-03-19T08:32:18.073Z,9.7
2024-03-19T08:33:18.113Z,8.6
2024-03-19T08:34:17.464Z,9.6
2024-03-19T08:35:18.087Z,9.7
2024-03-19T08:36:17.856Z,8.3
2024-03-19T08:37:17.797Z,8.2
2024-03-19T08:38:17.605Z,8.4
2024-03-19T08:39:17.312Z,7.4
2024-03-19T08:40:18.103Z,7.5
2024-03-19T08:41:17.858Z,7.9
2024-03-19T08:42:18.062Z,8.0
2024-03-19T08:43:17.404Z,7.9
2024-03-19T08:44:17.781Z,7.2
2024-03-19T08:45:17.943Z,7.7
2024-03-19T08:46:20.412Z,7.2
2024-03-19T08:47:17.455Z,7.5
2024-03-19T08:48:17.712Z,7.1
2024-03-19T08:49:17.687Z,7.0
2024-03-19T08:50:17.469Z,7.1
2024-03-19T08:51:18.017Z,6.5
2024-03-19T08:52:17.848Z,7.2
2024-03-19T08:53:17.607Z,6.5
2024-03-19T08:54:17.550Z,6.5
2024-03-19T08:55:18.335Z,6.8
2024-03-19T08:56:18.059Z,6.4
2024-03-19T08:57:17.997Z,6.6
2024-03-19T08:58:17.635Z,7.5
2024-03-19T08:59:17.304Z,6.8
2024-03-19T09:00:18.134Z,6.5
2024-03-19T09:01:17.902Z,6.5
2024-03-19T09:02:18.193Z,6.7
2024-03-19T09:03:18.047Z,5.9
2024-03-19T09:04:17.639Z,7.2
2024-03-19T09:05:17.494Z,6.8
2024-03-19T09:06:17.736Z,7.5
2024-03-19T09:07:17.578Z,6.8
2024-03-19T09:08:17.481Z,6.6
2024-03-19T09:09:18.065Z,6.2
2024-03-19T09:10:17.896Z,6.6
2024-03-19T09:11:19.631Z,7.1
2024-03-19T09:12:17.897Z,6.6
2024-03-19T09:13:17.813Z,6.7
2024-03-19T09:14:20.356Z,6.7
2024-03-19T09:15:18.027Z,7.1
2024-03-19T09:16:17.730Z,6.7
2024-03-19T09:17:19.020Z,6.7
2024-03-19T09:18:18.063Z,5.5
2024-03-19T09:19:17.533Z,5.9
2024-03-19T09:20:18.290Z,6.6
2024-03-19T09:21:17.272Z,6.8
2024-03-19T09:22:17.670Z,6.3
2024-03-19T09:23:17.937Z,5.9
2024-03-19T09:24:17.880Z,7.0
2024-03-19T09:25:17.587Z,6.7
2024-03-19T09:26:17.443Z,5.8
2024-03-19T09:27:18.055Z,7.5
2024-03-19T09:28:17.538Z,6.2
2024-03-19T09:29:18.056Z,5.6
2024-03-19T09:30:17.794Z,5.4
2024-03-19T09:31:18.058Z,6.0
2024-03-19T09:32:17.830Z,5.7
2024-03-19T09:33:17.979Z,6.3
2024-03-19T09:34:17.636Z,5.8
2024-03-19T09:35:17.348Z,6.5
2024-03-19T09:36:17.940Z,6.1
2024-03-19T09:37:17.287Z,6.4
2024-03-19T09:38:17.502Z,6.2
2024-03-19T09:39:17.386Z,6.3
2024-03-19T09:40:17.986Z,4.9
2024-03-19T09:41:19.679Z,5.5
2024-03-19T09:42:20.387Z,5.8
2024-03-19T09:43:21.223Z,6.0
2024-03-19T09:44:17.862Z,6.0
2024-03-19T09:45:29.982Z,6.4
2024-03-19T09:46:17.460Z,6.6
2024-03-19T09:47:20.384Z,6.0
2024-03-19T09:48:19.035Z,5.4
2024-03-19T09:49:17.912Z,5.1
2024-03-19T09:50:17.876Z,5.9
2024-03-19T09:51:20.868Z,6.5
2024-03-19T09:52:17.943Z,5.6
2024-03-19T09:53:18.437Z,5.4
2024-03-19T09:54:17.700Z,5.9
2024-03-19T09:55:17.835Z,5.9
2024-03-19T09:56:18.227Z,5.7
2024-03-19T09:57:18.411Z,5.6
2024-03-19T09:58:19.305Z,6.1
2024-03-19T09:59:17.413Z,5.7
2024-03-19T10:00:20.091Z,6.3
2024-03-19T10:01:18.060Z,6.5
2024-03-19T10:02:18.328Z,6.2
2024-03-19T10:03:17.719Z,6.9
2024-03-19T10:04:17.755Z,5.1
2024-03-19T10:05:18.269Z,6.2
2024-03-19T10:06:17.355Z,6.0
2024-03-19T10:07:19.374Z,8.3
2024-03-19T10:08:18.098Z,6.4
2024-03-19T10:09:18.438Z,6.2
2024-03-19T10:10:18.004Z,5.7
2024-03-19T10:11:17.366Z,6.1
2024-03-19T10:12:18.050Z,6.0
2024-03-19T10:13:17.940Z,6.5
2024-03-19T10:14:17.613Z,5.5
2024-03-19T10:15:21.051Z,5.6
2024-03-19T10:16:17.248Z,5.4
2024-03-19T10:17:18.188Z,6.1
2024-03-19T10:18:17.989Z,6.1
2024-03-19T10:19:17.753Z,6.4
2024-03-19T10:20:20.386Z,5.9
2024-03-19T10:21:18.150Z,6.7
2024-03-19T10:22:19.090Z,6.2
2024-03-19T10:23:18.037Z,5.3
2024-03-19T10:24:17.582Z,5.5
2024-03-19T10:25:17.281Z,5.1
2024-03-19T10:26:17.986Z,7.8
2024-03-19T10:27:17.838Z,6.9
2024-03-19T10:28:18.800Z,6.2
2024-03-19T10:29:17.841Z,6.2
2024-03-19T10:30:19.611Z,5.8
2024-03-19T10:31:17.424Z,6.3
2024-03-19T10:32:25.234Z,5.8
2024-03-19T10:33:18.077Z,6.8
2024-03-19T10:34:21.044Z,6.0
2024-03-19T10:35:21.450Z,6.2
2024-03-19T10:36:21.840Z,6.7
2024-03-19T10:37:18.265Z,6.8
2024-03-19T10:38:29.169Z,6.0
2024-03-19T10:39:18.323Z,6.3
2024-03-19T10:40:21.349Z,6.2
2024-03-19T10:41:18.754Z,6.0
2024-03-19T10:42:18.104Z,6.5
2024-03-19T10:43:30.952Z,6.1
2024-03-19T10:44:21.089Z,5.0
2024-03-19T10:45:21.266Z,6.6
2024-03-19T10:46:18.073Z,5.8
2024-03-19T10:47:18.082Z,6.3
2024-03-19T10:48:17.879Z,5.4
2024-03-19T10:49:20.859Z,6.1
2024-03-19T10:50:18.978Z,6.4
2024-03-19T10:51:18.233Z,7.3
2024-03-19T10:52:19.600Z,7.3
2024-03-19T10:53:19.462Z,6.0
2024-03-19T10:54:19.937Z,7.0
2024-03-19T10:55:19.588Z,7.5
2024-03-19T10:56:18.409Z,8.1
2024-03-19T10:57:18.245Z,7.2
2024-03-19T10:58:17.608Z,6.8
2024-03-19T10:59:17.407Z,7.6
2024-03-19T11:00:21.681Z,7.3
2024-03-19T11:01:17.924Z,8.0
2024-03-19T11:02:18.021Z,7.4
2024-03-19T11:03:19.380Z,8.3
2024-03-19T11:04:22.490Z,8.1
2024-03-19T11:05:18.185Z,8.5
2024-03-19T11:06:21.855Z,7.7
2024-03-19T11:07:21.989Z,8.0
2024-03-19T11:08:17.863Z,8.2
2024-03-19T11:09:20.244Z,8.5
2024-03-19T11:10:25.081Z,8.1
2024-03-19T11:11:17.512Z,8.0
2024-03-19T11:12:17.619Z,9.5
2024-03-19T11:13:17.986Z,8.8
2024-03-19T11:14:17.661Z,7.9
2024-03-19T11:15:17.352Z,8.6
2024-03-19T11:16:18.180Z,7.7
2024-03-19T11:17:17.900Z,8.3
2024-03-19T11:18:18.801Z,8.7
2024-03-19T11:19:21.099Z,9.4
2024-03-19T11:20:17.293Z,9.2
2024-03-19T11:21:18.792Z,9.4
2024-03-19T11:22:18.654Z,9.3
2024-03-19T11:23:21.616Z,8.4
2024-03-19T11:24:21.690Z,9.2
2024-03-19T11:25:20.286Z,9.1
2024-03-19T11:26:17.995Z,8.8
2024-03-19T11:27:17.982Z,8.1
2024-03-19T11:28:30.270Z,9.2
2024-03-19T11:29:17.661Z,8.9
2024-03-19T11:30:18.477Z,8.6
2024-03-19T11:31:17.786Z,9.3
2024-03-19T11:32:24.318Z,8.1
2024-03-19T11:33:18.865Z,9.4
2024-03-19T11:34:18.312Z,8.9
2024-03-19T11:35:23.450Z,8.5
2024-03-19T11:36:17.381Z,9.2
2024-03-19T11:37:18.235Z,8.6
2024-03-19T11:38:18.490Z,9.2
2024-03-19T11:39:18.081Z,8.4
2024-03-19T11:40:20.709Z,9.0
2024-03-19T11:41:27.365Z,9.2
2024-03-19T11:42:17.434Z,8.3
2024-03-19T11:43:18.091Z,8.5
2024-03-19T11:44:18.659Z,8.8
2024-03-19T11:45:17.827Z,7.8
2024-03-19T11:46:17.691Z,8.8
2024-03-19T11:47:18.110Z,8.7
2024-03-19T11:48:21.609Z,8.1
2024-03-19T11:49:20.981Z,8.4
2024-03-19T11:50:18.755Z,9.0
2024-03-19T11:51:17.496Z,8.2
2024-03-19T11:52:17.363Z,8.9
2024-03-19T11:53:17.841Z,8.9
2024-03-19T11:54:17.635Z,8.5
2024-03-19T11:55:19.562Z,8.8
2024-03-19T11:56:17.526Z,7.2
2024-03-19T11:57:17.820Z,8.6
2024-03-19T11:58:17.541Z,6.6
2024-03-19T11:59:17.158Z,8.6
2024-03-19T12:00:17.831Z,8.2
2024-03-19T12:01:17.404Z,8.2
2024-03-19T12:02:18.047Z,8.5
2024-03-19T12:03:18.773Z,8.3
2024-03-19T12:04:17.952Z,8.0
2024-03-19T12:05:17.532Z,8.1
2024-03-19T12:06:17.749Z,8.2
2024-03-19T12:07:17.825Z,7.9
2024-03-19T12:08:18.281Z,7.4
2024-03-19T12:09:18.085Z,6.9
2024-03-19T12:10:21.681Z,7.0
2024-03-19T12:11:17.676Z,8.3
2024-03-19T12:12:17.441Z,8.5
2024-03-19T12:13:17.256Z,8.1
2024-03-19T12:14:18.474Z,7.5
2024-03-19T12:15:18.924Z,8.0
2024-03-19T12:16:18.610Z,7.5
2024-03-19T12:17:17.251Z,7.7
2024-03-19T12:18:18.011Z,7.7
2024-03-19T12:19:19.066Z,8.0
2024-03-19T12:20:18.095Z,7.5
2024-03-19T12:21:18.079Z,7.8
2024-03-19T12:22:17.820Z,8.4
2024-03-19T12:23:17.954Z,7.5
2024-03-19T12:24:18.406Z,7.4
2024-03-19T12:25:18.060Z,6.7
2024-03-19T12:26:17.339Z,8.0
2024-03-19T12:27:17.450Z,8.0
2024-03-19T12:28:18.147Z,7.9
2024-03-19T12:29:18.116Z,7.9
2024-03-19T12:30:19.340Z,7.9
2024-03-19T12:31:17.725Z,7.9
2024-03-19T12:32:17.523Z,8.4
2024-03-19T12:33:17.261Z,7.3
2024-03-19T12:34:20.750Z,7.4
2024-03-19T12:35:17.824Z,6.7
2024-03-19T12:36:17.954Z,7.0
2024-03-19T12:37:17.966Z,7.9
2024-03-19T12:38:17.478Z,7.3
2024-03-19T12:39:17.490Z,6.8
2024-03-19T12:40:17.361Z,8.0
2024-03-19T12:41:18.080Z,7.2
2024-03-19T12:42:17.445Z,8.1
2024-03-19T12:43:17.200Z,7.2
2024-03-19T12:44:17.862Z,7.9
2024-03-19T12:45:17.768Z,6.9
2024-03-19T12:46:17.561Z,7.7
2024-03-19T12:47:17.527Z,7.6
2024-03-19T12:48:18.079Z,7.4
2024-03-19T12:49:17.929Z,5.7
2024-03-19T12:50:18.172Z,7.6
2024-03-19T12:51:17.508Z,6.9
2024-03-19T12:52:17.297Z,6.5
2024-03-19T12:53:17.838Z,6.6
2024-03-19T12:54:17.809Z,6.7
2024-03-19T12:55:17.890Z,7.4
2024-03-19T12:56:17.821Z,6.8
2024-03-19T12:57:25.712Z,6.4
2024-03-19T12:58:17.421Z,7.4
2024-03-19T12:59:17.666Z,6.8
2024-03-19T13:00:17.678Z,7.1
2024-03-19T13:01:17.786Z,7.1
2024-03-19T13:02:17.548Z,6.7
2024-03-19T13:03:17.255Z,7.5
2024-03-19T13:04:18.094Z,6.7
2024-03-19T13:05:17.681Z,7.1
2024-03-19T13:06:17.606Z,7.5
2024-03-19T13:07:17.445Z,6.3
2024-03-19T13:08:18.137Z,7.1
2024-03-19T13:09:18.074Z,7.8
2024-03-19T13:10:18.016Z,7.1
2024-03-19T13:11:17.469Z,7.0
2024-03-19T13:12:17.241Z,6.7
2024-03-19T13:13:17.868Z,7.1
2024-03-19T13:14:17.783Z,6.8
2024-03-19T13:15:17.600Z,7.4
2024-03-19T13:16:17.441Z,7.6
2024-03-19T13:17:18.006Z,7.1
2024-03-19T13:18:17.975Z,6.8
2024-03-19T13:19:17.639Z,6.8
2024-03-19T13:20:17.605Z,7.3
2024-03-19T13:21:17.462Z,7.2
2024-03-19T13:22:17.583Z,6.7
2024-03-19T13:23:18.661Z,7.2
2024-03-19T13:24:24.716Z,6.7
2024-03-19T13:25:17.911Z,7.0
2024-03-19T13:26:17.632Z,6.8
2024-03-19T13:27:17.751Z,6.4
2024-03-19T13:28:17.283Z,7.1
2024-03-19T13:29:18.212Z,6.9
2024-03-19T13:30:17.597Z,6.0
2024-03-19T13:31:18.076Z,6.5
2024-03-19T13:32:17.373Z,6.7
2024-03-19T13:33:18.165Z,5.9
2024-03-19T13:34:18.094Z,6.2